sensor_id;sensor_type;location;lat;lon;timestamp;temperature;humidity
36800;DHT22;22752;51.960;5.886;2023-07-13T00:00:28;16.70;99.90
36800;DHT22;22752;51.960;5.886;2023-07-13T00:02:53;16.70;99.90
36800;DHT22;22752;51.960;5.886;2023-07-13T00:05:20;16.60;99.90
36800;DHT22;22752;51.960;5.886;2023-07-13T00:07:47;16.60;99.90
36800;DHT22;22752;51.960;5.886;2023-07-13T00:10:14;16.50;99.90
36800;DHT22;22752;51.960;5.886;2023-07-13T00:12:40;16.50;99.90
36800;DHT22;22752;51.960;5.886;2023-07-13T00:15:26;16.50;99.90
36800;DHT22;22752;51.960;5.886;2023-07-13T00:17:54;16.50;99.90
36800;DHT22;22752;51.960;5.886;2023-07-13T00:20:24;16.50;99.90
36800;DHT22;22752;51.960;5.886;2023-07-13T00:22:53;16.50;99.90
36800;DHT22;22752;51.960;5.886;2023-07-13T00:25:20;16.60;99.90
36800;DHT22;22752;51.960;5.886;2023-07-13T00:27:47;16.60;99.90
36800;DHT22;22752;51.960;5.886;2023-07-13T00:30:14;16.70;99.90
36800;DHT22;22752;51.960;5.886;2023-07-13T00:32:40;16.70;99.90
36800;DHT22;22752;51.960;5.886;2023-07-13T00:35:06;16.70;99.90
36800;DHT22;22752;51.960;5.886;2023-07-13T00:37:32;16.60;99.90
36800;DHT22;22752;51.960;5.886;2023-07-13T00:39:59;16.50;99.90
36800;DHT22;22752;51.960;5.886;2023-07-13T00:42:24;16.50;99.90
36800;DHT22;22752;51.960;5.886;2023-07-13T00:47:48;16.50;99.90
36800;DHT22;22752;51.960;5.886;2023-07-13T00:50:15;16.50;99.90
36800;DHT22;22752;51.960;5.886;2023-07-13T00:52:44;16.50;99.90
36800;DHT22;22752;51.960;5.886;2023-07-13T00:55:11;16.50;99.90
36800;DHT22;22752;51.960;5.886;2023-07-13T00:57:38;16.40;99.90
36800;DHT22;22752;51.960;5.886;2023-07-13T01:00:05;16.40;99.90
36800;DHT22;22752;51.960;5.886;2023-07-13T01:02:45;16.40;99.90
36800;DHT22;22752;51.960;5.886;2023-07-13T01:05:17;16.30;99.90
36800;DHT22;22752;51.960;5.886;2023-07-13T01:07:44;16.30;99.90
36800;DHT22;22752;51.960;5.886;2023-07-13T01:10:14;16.20;99.90
36800;DHT22;22752;51.960;5.886;2023-07-13T01:12:40;16.20;99.90
36800;DHT22;22752;51.960;5.886;2023-07-13T01:15:39;16.30;99.90
36800;DHT22;22752;51.960;5.886;2023-07-13T01:18:19;16.30;99.90
36800;DHT22;22752;51.960;5.886;2023-07-13T01:20:59;16.20;99.90
36800;DHT22;22752;51.960;5.886;2023-07-13T01:23:26;16.20;99.90
36800;DHT22;22752;51.960;5.886;2023-07-13T01:25:53;16.20;99.90
36800;DHT22;22752;51.960;5.886;2023-07-13T01:28:21;16.20;99.90
36800;DHT22;22752;51.960;5.886;2023-07-13T01:30:47;16.10;99.90
36800;DHT22;22752;51.960;5.886;2023-07-13T01:33:14;16.20;99.90
36800;DHT22;22752;51.960;5.886;2023-07-13T01:35:41;16.20;99.90
36800;DHT22;22752;51.960;5.886;2023-07-13T01:38:07;16.10;99.90
36800;DHT22;22752;51.960;5.886;2023-07-13T01:40:34;16.10;99.90
36800;DHT22;22752;51.960;5.886;2023-07-13T01:43:00;16.00;99.90
36800;DHT22;22752;51.960;5.886;2023-07-13T01:45:26;16.10;99.90
36800;DHT22;22752;51.960;5.886;2023-07-13T01:47:52;16.10;99.90
36800;DHT22;22752;51.960;5.886;2023-07-13T01:50:18;16.10;99.90
36800;DHT22;22752;51.960;5.886;2023-07-13T01:52:43;16.10;99.90
36800;DHT22;22752;51.960;5.886;2023-07-13T01:55:09;16.10;99.90
36800;DHT22;22752;51.960;5.886;2023-07-13T01:57:35;16.10;99.90
36800;DHT22;22752;51.960;5.886;2023-07-13T02:00:03;16.10;99.90
36800;DHT22;22752;51.960;5.886;2023-07-13T02:02:30;16.10;99.90
36800;DHT22;22752;51.960;5.886;2023-07-13T02:04:56;16.00;99.90
36800;DHT22;22752;51.960;5.886;2023-07-13T02:07:21;16.00;99.90
36800;DHT22;22752;51.960;5.886;2023-07-13T02:09:47;16.00;99.90
36800;DHT22;22752;51.960;5.886;2023-07-13T02:12:13;16.00;99.90
36800;DHT22;22752;51.960;5.886;2023-07-13T02:14:38;16.00;99.90
36800;DHT22;22752;51.960;5.886;2023-07-13T02:17:06;16.00;99.90
36800;DHT22;22752;51.960;5.886;2023-07-13T02:19:31;15.90;99.90
36800;DHT22;22752;51.960;5.886;2023-07-13T02:21:57;15.90;99.90
36800;DHT22;22752;51.960;5.886;2023-07-13T02:24:23;15.90;99.90
36800;DHT22;22752;51.960;5.886;2023-07-13T02:26:48;15.90;99.90
36800;DHT22;22752;51.960;5.886;2023-07-13T02:29:14;15.80;99.90
36800;DHT22;22752;51.960;5.886;2023-07-13T02:31:40;15.80;99.90
36800;DHT22;22752;51.960;5.886;2023-07-13T02:34:05;15.70;99.90
36800;DHT22;22752;51.960;5.886;2023-07-13T02:36:32;15.70;99.90
36800;DHT22;22752;51.960;5.886;2023-07-13T02:39:00;15.70;99.90
36800;DHT22;22752;51.960;5.886;2023-07-13T02:41:26;15.70;99.90
36800;DHT22;22752;51.960;5.886;2023-07-13T02:43:52;15.70;99.90
36800;DHT22;22752;51.960;5.886;2023-07-13T02:46:18;15.70;99.90
36800;DHT22;22752;51.960;5.886;2023-07-13T02:48:45;15.60;99.90
36800;DHT22;22752;51.960;5.886;2023-07-13T02:51:11;15.70;99.90
36800;DHT22;22752;51.960;5.886;2023-07-13T02:53:37;15.60;99.90
36800;DHT22;22752;51.960;5.886;2023-07-13T02:56:03;15.60;99.90
36800;DHT22;22752;51.960;5.886;2023-07-13T02:58:30;15.60;99.90
36800;DHT22;22752;51.960;5.886;2023-07-13T03:00:56;15.50;99.90
36800;DHT22;22752;51.960;5.886;2023-07-13T03:03:23;15.50;99.90
36800;DHT22;22752;51.960;5.886;2023-07-13T03:05:58;15.50;99.90
36800;DHT22;22752;51.960;5.886;2023-07-13T03:08:25;15.50;99.90
36800;DHT22;22752;51.960;5.886;2023-07-13T03:11:02;15.50;99.90
36800;DHT22;22752;51.960;5.886;2023-07-13T03:13:28;15.50;99.90
36800;DHT22;22752;51.960;5.886;2023-07-13T03:15:54;15.40;99.90
36800;DHT22;22752;51.960;5.886;2023-07-13T03:18:20;15.40;99.90
36800;DHT22;22752;51.960;5.886;2023-07-13T03:20:45;15.40;99.90
36800;DHT22;22752;51.960;5.886;2023-07-13T03:23:11;15.40;99.90
36800;DHT22;22752;51.960;5.886;2023-07-13T03:25:36;15.40;99.90
36800;DHT22;22752;51.960;5.886;2023-07-13T03:28:02;15.40;99.90
36800;DHT22;22752;51.960;5.886;2023-07-13T03:30:28;15.40;99.90
36800;DHT22;22752;51.960;5.886;2023-07-13T03:32:53;15.40;99.90
36800;DHT22;22752;51.960;5.886;2023-07-13T03:35:19;15.40;99.90
36800;DHT22;22752;51.960;5.886;2023-07-13T03:37:45;15.30;99.90
36800;DHT22;22752;51.960;5.886;2023-07-13T03:40:12;15.30;99.90
36800;DHT22;22752;51.960;5.886;2023-07-13T03:42:38;15.30;99.90
36800;DHT22;22752;51.960;5.886;2023-07-13T03:45:04;15.30;99.90
36800;DHT22;22752;51.960;5.886;2023-07-13T03:47:30;15.30;99.90
36800;DHT22;22752;51.960;5.886;2023-07-13T03:49:56;15.30;99.90
36800;DHT22;22752;51.960;5.886;2023-07-13T03:52:21;15.30;99.90
36800;DHT22;22752;51.960;5.886;2023-07-13T03:54:47;15.30;99.90
36800;DHT22;22752;51.960;5.886;2023-07-13T03:57:13;15.30;99.90
36800;DHT22;22752;51.960;5.886;2023-07-13T03:59:38;15.30;99.90
36800;DHT22;22752;51.960;5.886;2023-07-13T04:02:04;15.30;99.90
36800;DHT22;22752;51.960;5.886;2023-07-13T04:04:30;15.40;99.90
36800;DHT22;22752;51.960;5.886;2023-07-13T04:06:57;15.40;99.90
36800;DHT22;22752;51.960;5.886;2023-07-13T04:09:24;15.50;99.90
36800;DHT22;22752;51.960;5.886;2023-07-13T04:11:50;15.50;99.90
36800;DHT22;22752;51.960;5.886;2023-07-13T04:14:16;15.70;99.90
36800;DHT22;22752;51.960;5.886;2023-07-13T04:16:42;15.90;99.90
36800;DHT22;22752;51.960;5.886;2023-07-13T04:19:09;16.20;99.90
36800;DHT22;22752;51.960;5.886;2023-07-13T04:21:36;16.60;99.90
36800;DHT22;22752;51.960;5.886;2023-07-13T04:24:02;16.90;99.90
36800;DHT22;22752;51.960;5.886;2023-07-13T04:26:29;17.20;99.90
36800;DHT22;22752;51.960;5.886;2023-07-13T04:28:55;17.60;99.90
36800;DHT22;22752;51.960;5.886;2023-07-13T04:31:22;17.90;99.90
36800;DHT22;22752;51.960;5.886;2023-07-13T04:33:48;18.10;99.90
36800;DHT22;22752;51.960;5.886;2023-07-13T04:36:15;17.90;99.90
36800;DHT22;22752;51.960;5.886;2023-07-13T04:38:41;17.70;99.90
36800;DHT22;22752;51.960;5.886;2023-07-13T04:41:08;17.50;99.90
36800;DHT22;22752;51.960;5.886;2023-07-13T04:43:34;17.40;99.90
36800;DHT22;22752;51.960;5.886;2023-07-13T04:46:08;17.30;99.90
36800;DHT22;22752;51.960;5.886;2023-07-13T04:48:35;17.10;99.90
36800;DHT22;22752;51.960;5.886;2023-07-13T04:51:01;17.10;99.90
36800;DHT22;22752;51.960;5.886;2023-07-13T04:53:27;17.00;99.90
36800;DHT22;22752;51.960;5.886;2023-07-13T04:55:53;17.10;99.90
36800;DHT22;22752;51.960;5.886;2023-07-13T04:58:19;17.20;99.90
36800;DHT22;22752;51.960;5.886;2023-07-13T05:00:46;17.30;99.90
36800;DHT22;22752;51.960;5.886;2023-07-13T05:03:12;17.30;99.90
36800;DHT22;22752;51.960;5.886;2023-07-13T05:05:38;17.30;99.90
36800;DHT22;22752;51.960;5.886;2023-07-13T05:08:04;17.20;99.90
36800;DHT22;22752;51.960;5.886;2023-07-13T05:10:29;17.20;99.90
36800;DHT22;22752;51.960;5.886;2023-07-13T05:12:55;17.30;99.90
36800;DHT22;22752;51.960;5.886;2023-07-13T05:15:22;17.30;99.90
36800;DHT22;22752;51.960;5.886;2023-07-13T05:17:49;17.40;99.90
36800;DHT22;22752;51.960;5.886;2023-07-13T05:20:16;17.50;99.90
36800;DHT22;22752;51.960;5.886;2023-07-13T05:22:42;17.50;99.90
36800;DHT22;22752;51.960;5.886;2023-07-13T05:25:08;17.50;99.90
36800;DHT22;22752;51.960;5.886;2023-07-13T05:27:35;17.50;99.90
36800;DHT22;22752;51.960;5.886;2023-07-13T05:30:01;17.50;99.90
36800;DHT22;22752;51.960;5.886;2023-07-13T05:32:27;17.50;99.90
36800;DHT22;22752;51.960;5.886;2023-07-13T05:34:52;17.50;99.90
36800;DHT22;22752;51.960;5.886;2023-07-13T05:37:18;17.50;99.90
36800;DHT22;22752;51.960;5.886;2023-07-13T05:39:44;17.50;99.90
36800;DHT22;22752;51.960;5.886;2023-07-13T05:42:09;17.60;99.90
36800;DHT22;22752;51.960;5.886;2023-07-13T05:44:35;17.60;99.90
36800;DHT22;22752;51.960;5.886;2023-07-13T05:47:01;17.70;99.90
36800;DHT22;22752;51.960;5.886;2023-07-13T05:49:27;17.80;99.90
36800;DHT22;22752;51.960;5.886;2023-07-13T05:51:52;17.90;99.90
36800;DHT22;22752;51.960;5.886;2023-07-13T05:54:18;18.10;99.90
36800;DHT22;22752;51.960;5.886;2023-07-13T05:56:44;18.30;99.90
36800;DHT22;22752;51.960;5.886;2023-07-13T05:59:09;18.50;99.90
36800;DHT22;22752;51.960;5.886;2023-07-13T06:01:35;18.70;99.90
36800;DHT22;22752;51.960;5.886;2023-07-13T06:04:01;18.80;99.90
36800;DHT22;22752;51.960;5.886;2023-07-13T06:06:27;19.20;99.90
36800;DHT22;22752;51.960;5.886;2023-07-13T06:08:52;19.50;99.90
36800;DHT22;22752;51.960;5.886;2023-07-13T06:11:21;19.70;99.90
36800;DHT22;22752;51.960;5.886;2023-07-13T06:13:47;19.80;99.90
36800;DHT22;22752;51.960;5.886;2023-07-13T06:16:14;20.20;99.90
36800;DHT22;22752;51.960;5.886;2023-07-13T06:18:40;20.40;99.90
36800;DHT22;22752;51.960;5.886;2023-07-13T06:21:20;20.60;99.90
36800;DHT22;22752;51.960;5.886;2023-07-13T06:23:48;20.60;99.90
36800;DHT22;22752;51.960;5.886;2023-07-13T06:26:14;20.50;99.90
36800;DHT22;22752;51.960;5.886;2023-07-13T06:28:40;20.50;99.90
36800;DHT22;22752;51.960;5.886;2023-07-13T06:31:07;20.50;99.90
36800;DHT22;22752;51.960;5.886;2023-07-13T06:33:33;20.60;99.90
36800;DHT22;22752;51.960;5.886;2023-07-13T06:36:00;20.90;99.90
36800;DHT22;22752;51.960;5.886;2023-07-13T06:38:26;21.00;99.90
36800;DHT22;22752;51.960;5.886;2023-07-13T06:40:52;21.00;99.90
36800;DHT22;22752;51.960;5.886;2023-07-13T06:43:17;21.10;99.90
36800;DHT22;22752;51.960;5.886;2023-07-13T06:45:46;21.20;99.90
36800;DHT22;22752;51.960;5.886;2023-07-13T06:48:13;21.30;99.90
36800;DHT22;22752;51.960;5.886;2023-07-13T06:50:39;21.10;99.90
36800;DHT22;22752;51.960;5.886;2023-07-13T06:53:05;20.90;99.90
36800;DHT22;22752;51.960;5.886;2023-07-13T06:55:30;20.60;99.90
36800;DHT22;22752;51.960;5.886;2023-07-13T06:57:57;20.40;99.90
36800;DHT22;22752;51.960;5.886;2023-07-13T07:00:23;20.30;99.90
36800;DHT22;22752;51.960;5.886;2023-07-13T07:02:49;20.30;99.90
36800;DHT22;22752;51.960;5.886;2023-07-13T07:05:14;20.40;99.90
36800;DHT22;22752;51.960;5.886;2023-07-13T07:07:40;20.70;99.90
36800;DHT22;22752;51.960;5.886;2023-07-13T07:10:06;21.00;99.90
36800;DHT22;22752;51.960;5.886;2023-07-13T07:12:32;21.30;99.90
36800;DHT22;22752;51.960;5.886;2023-07-13T07:14:58;21.50;99.90
36800;DHT22;22752;51.960;5.886;2023-07-13T07:17:23;21.70;99.90
36800;DHT22;22752;51.960;5.886;2023-07-13T07:19:50;22.20;99.90
36800;DHT22;22752;51.960;5.886;2023-07-13T07:22:16;22.60;99.90
36800;DHT22;22752;51.960;5.886;2023-07-13T07:24:41;22.60;99.90
36800;DHT22;22752;51.960;5.886;2023-07-13T07:27:07;22.40;99.90
36800;DHT22;22752;51.960;5.886;2023-07-13T07:29:33;22.30;99.90
36800;DHT22;22752;51.960;5.886;2023-07-13T07:31:59;22.30;99.90
36800;DHT22;22752;51.960;5.886;2023-07-13T07:34:26;22.20;99.90
36800;DHT22;22752;51.960;5.886;2023-07-13T07:36:52;22.10;99.90
36800;DHT22;22752;51.960;5.886;2023-07-13T07:39:18;22.00;99.90
36800;DHT22;22752;51.960;5.886;2023-07-13T07:41:44;21.90;99.90
36800;DHT22;22752;51.960;5.886;2023-07-13T07:44:10;22.00;99.90
36800;DHT22;22752;51.960;5.886;2023-07-13T07:46:35;22.30;99.90
36800;DHT22;22752;51.960;5.886;2023-07-13T07:49:01;22.60;99.90
36800;DHT22;22752;51.960;5.886;2023-07-13T07:51:27;22.80;99.90
36800;DHT22;22752;51.960;5.886;2023-07-13T07:53:53;22.90;99.90
36800;DHT22;22752;51.960;5.886;2023-07-13T07:56:18;23.10;99.90
36800;DHT22;22752;51.960;5.886;2023-07-13T07:58:44;23.10;99.90
36800;DHT22;22752;51.960;5.886;2023-07-13T08:01:10;22.90;99.90
36800;DHT22;22752;51.960;5.886;2023-07-13T08:03:35;22.90;99.90
36800;DHT22;22752;51.960;5.886;2023-07-13T08:06:01;23.20;99.90
36800;DHT22;22752;51.960;5.886;2023-07-13T08:08:27;23.30;99.90
36800;DHT22;22752;51.960;5.886;2023-07-13T08:10:53;23.40;99.90
36800;DHT22;22752;51.960;5.886;2023-07-13T08:13:19;23.50;99.90
36800;DHT22;22752;51.960;5.886;2023-07-13T08:15:45;23.80;99.90
36800;DHT22;22752;51.960;5.886;2023-07-13T08:18:11;24.40;99.90
36800;DHT22;22752;51.960;5.886;2023-07-13T08:20:38;24.40;99.90
36800;DHT22;22752;51.960;5.886;2023-07-13T08:23:04;24.40;99.90
36800;DHT22;22752;51.960;5.886;2023-07-13T08:25:30;24.10;99.90
36800;DHT22;22752;51.960;5.886;2023-07-13T08:27:55;23.90;99.90
36800;DHT22;22752;51.960;5.886;2023-07-13T08:30:21;23.70;99.90
36800;DHT22;22752;51.960;5.886;2023-07-13T08:32:47;23.70;99.90
36800;DHT22;22752;51.960;5.886;2023-07-13T08:35:12;23.90;99.90
36800;DHT22;22752;51.960;5.886;2023-07-13T08:37:39;24.50;99.90
36800;DHT22;22752;51.960;5.886;2023-07-13T08:40:05;25.40;99.90
36800;DHT22;22752;51.960;5.886;2023-07-13T08:42:45;25.80;99.40
36800;DHT22;22752;51.960;5.886;2023-07-13T08:45:23;25.80;99.20
36800;DHT22;22752;51.960;5.886;2023-07-13T08:48:04;26.20;99.00
36800;DHT22;22752;51.960;5.886;2023-07-13T08:50:38;26.50;97.90
36800;DHT22;22752;51.960;5.886;2023-07-13T08:53:07;26.10;97.90
36800;DHT22;22752;51.960;5.886;2023-07-13T08:55:36;25.40;98.00
36800;DHT22;22752;51.960;5.886;2023-07-13T08:58:22;24.70;98.70
36800;DHT22;22752;51.960;5.886;2023-07-13T09:03:50;23.40;99.90
36800;DHT22;22752;51.960;5.886;2023-07-13T09:06:17;23.10;99.90
36800;DHT22;22752;51.960;5.886;2023-07-13T09:16:56;25.00;98.60
36800;DHT22;22752;51.960;5.886;2023-07-13T09:19:27;25.40;98.00
36800;DHT22;22752;51.960;5.886;2023-07-13T09:21:54;25.60;97.40
36800;DHT22;22752;51.960;5.886;2023-07-13T09:24:39;25.30;96.70
36800;DHT22;22752;51.960;5.886;2023-07-13T09:27:25;25.10;97.30
36800;DHT22;22752;51.960;5.886;2023-07-13T09:32:47;24.60;97.00
36800;DHT22;22752;51.960;5.886;2023-07-13T09:35:18;24.30;97.20
36800;DHT22;22752;51.960;5.886;2023-07-13T09:37:45;23.90;98.20
36800;DHT22;22752;51.960;5.886;2023-07-13T09:40:21;23.40;99.20
36800;DHT22;22752;51.960;5.886;2023-07-13T09:42:52;23.00;99.90
36800;DHT22;22752;51.960;5.886;2023-07-13T09:45:28;22.60;99.90
36800;DHT22;22752;51.960;5.886;2023-07-13T09:48:02;22.40;99.90
36800;DHT22;22752;51.960;5.886;2023-07-13T09:50:28;22.20;99.90
36800;DHT22;22752;51.960;5.886;2023-07-13T09:52:55;22.20;99.90
36800;DHT22;22752;51.960;5.886;2023-07-13T09:57:56;22.30;99.90
36800;DHT22;22752;51.960;5.886;2023-07-13T10:00:29;22.40;99.90
36800;DHT22;22752;51.960;5.886;2023-07-13T10:03:04;22.50;99.90
36800;DHT22;22752;51.960;5.886;2023-07-13T10:05:41;22.40;99.90
36800;DHT22;22752;51.960;5.886;2023-07-13T10:08:28;22.50;99.90
36800;DHT22;22752;51.960;5.886;2023-07-13T10:11:00;22.80;99.90
36800;DHT22;22752;51.960;5.886;2023-07-13T10:13:35;22.90;99.90
36800;DHT22;22752;51.960;5.886;2023-07-13T10:16:03;22.80;99.90
36800;DHT22;22752;51.960;5.886;2023-07-13T10:18:34;22.80;99.90
36800;DHT22;22752;51.960;5.886;2023-07-13T10:21:12;23.00;99.90
36800;DHT22;22752;51.960;5.886;2023-07-13T10:23:39;23.10;99.90
36800;DHT22;22752;51.960;5.886;2023-07-13T10:26:07;23.30;99.90
36800;DHT22;22752;51.960;5.886;2023-07-13T10:28:37;23.40;99.90
36800;DHT22;22752;51.960;5.886;2023-07-13T10:31:09;23.50;99.90
36800;DHT22;22752;51.960;5.886;2023-07-13T10:33:36;23.70;99.90
36800;DHT22;22752;51.960;5.886;2023-07-13T10:36:21;23.60;99.90
36800;DHT22;22752;51.960;5.886;2023-07-13T10:38:50;23.60;99.90
36800;DHT22;22752;51.960;5.886;2023-07-13T10:41:20;23.50;99.90
36800;DHT22;22752;51.960;5.886;2023-07-13T10:43:54;23.50;99.90
36800;DHT22;22752;51.960;5.886;2023-07-13T10:46:24;23.30;99.90
36800;DHT22;22752;51.960;5.886;2023-07-13T10:48:58;23.10;99.90
36800;DHT22;22752;51.960;5.886;2023-07-13T10:51:25;22.50;99.90
36800;DHT22;22752;51.960;5.886;2023-07-13T10:54:11;21.80;99.90
36800;DHT22;22752;51.960;5.886;2023-07-13T10:56:38;21.30;99.90
36800;DHT22;22752;51.960;5.886;2023-07-13T10:59:20;21.10;99.90
36800;DHT22;22752;51.960;5.886;2023-07-13T11:01:56;21.40;99.90
36800;DHT22;22752;51.960;5.886;2023-07-13T11:04:23;21.70;99.90
36800;DHT22;22752;51.960;5.886;2023-07-13T11:06:53;22.00;99.90
36800;DHT22;22752;51.960;5.886;2023-07-13T11:11:47;22.70;99.90
36800;DHT22;22752;51.960;5.886;2023-07-13T11:14:29;23.00;99.90
36800;DHT22;22752;51.960;5.886;2023-07-13T11:16:55;23.30;99.90
36800;DHT22;22752;51.960;5.886;2023-07-13T11:27:42;23.80;99.90
36800;DHT22;22752;51.960;5.886;2023-07-13T11:30:25;23.60;99.90
36800;DHT22;22752;51.960;5.886;2023-07-13T11:36:04;23.60;99.90
36800;DHT22;22752;51.960;5.886;2023-07-13T11:38:39;23.80;99.90
36800;DHT22;22752;51.960;5.886;2023-07-13T11:41:28;24.20;99.90
36800;DHT22;22752;51.960;5.886;2023-07-13T11:44:05;24.40;99.90
36800;DHT22;22752;51.960;5.886;2023-07-13T11:46:31;24.50;99.90
36800;DHT22;22752;51.960;5.886;2023-07-13T11:48:57;24.60;99.90
36800;DHT22;22752;51.960;5.886;2023-07-13T11:51:31;24.70;99.90
36800;DHT22;22752;51.960;5.886;2023-07-13T11:54:10;24.80;99.90
36800;DHT22;22752;51.960;5.886;2023-07-13T11:56:40;24.90;99.90
36800;DHT22;22752;51.960;5.886;2023-07-13T11:59:08;24.90;99.90
36800;DHT22;22752;51.960;5.886;2023-07-13T12:01:44;24.90;99.90
36800;DHT22;22752;51.960;5.886;2023-07-13T12:04:29;24.80;99.90
36800;DHT22;22752;51.960;5.886;2023-07-13T12:07:16;24.60;99.90
36800;DHT22;22752;51.960;5.886;2023-07-13T12:09:42;24.20;99.90
36800;DHT22;22752;51.960;5.886;2023-07-13T12:12:17;23.70;99.90
36800;DHT22;22752;51.960;5.886;2023-07-13T12:14:43;23.50;99.90
36800;DHT22;22752;51.960;5.886;2023-07-13T12:17:18;23.30;99.90
36800;DHT22;22752;51.960;5.886;2023-07-13T12:19:44;23.40;99.90
36800;DHT22;22752;51.960;5.886;2023-07-13T12:22:13;23.40;99.90
36800;DHT22;22752;51.960;5.886;2023-07-13T12:24:40;23.30;99.90
36800;DHT22;22752;51.960;5.886;2023-07-13T12:27:20;23.30;99.90
36800;DHT22;22752;51.960;5.886;2023-07-13T12:30:30;23.50;99.90
36800;DHT22;22752;51.960;5.886;2023-07-13T12:33:11;23.80;99.90
36800;DHT22;22752;51.960;5.886;2023-07-13T12:35:45;24.10;99.90
36800;DHT22;22752;51.960;5.886;2023-07-13T12:38:12;24.20;99.90
36800;DHT22;22752;51.960;5.886;2023-07-13T12:40:38;24.40;99.90
36800;DHT22;22752;51.960;5.886;2023-07-13T12:43:10;24.50;99.90
36800;DHT22;22752;51.960;5.886;2023-07-13T12:45:37;24.70;99.90
36800;DHT22;22752;51.960;5.886;2023-07-13T12:48:13;24.90;99.90
36800;DHT22;22752;51.960;5.886;2023-07-13T12:50:45;24.90;99.90
36800;DHT22;22752;51.960;5.886;2023-07-13T12:53:19;24.90;99.90
36800;DHT22;22752;51.960;5.886;2023-07-13T12:55:57;24.80;99.90
36800;DHT22;22752;51.960;5.886;2023-07-13T12:58:45;24.70;99.90
36800;DHT22;22752;51.960;5.886;2023-07-13T13:01:14;24.40;99.90
36800;DHT22;22752;51.960;5.886;2023-07-13T13:03:44;24.30;99.90
36800;DHT22;22752;51.960;5.886;2023-07-13T13:08:48;24.40;99.90
36800;DHT22;22752;51.960;5.886;2023-07-13T13:11:18;24.80;99.90
36800;DHT22;22752;51.960;5.886;2023-07-13T13:13:44;25.00;99.90
36800;DHT22;22752;51.960;5.886;2023-07-13T13:18:53;25.30;98.70
36800;DHT22;22752;51.960;5.886;2023-07-13T13:21:20;25.30;98.80
36800;DHT22;22752;51.960;5.886;2023-07-13T13:23:46;25.40;97.80
36800;DHT22;22752;51.960;5.886;2023-07-13T13:26:14;25.50;98.30
36800;DHT22;22752;51.960;5.886;2023-07-13T13:28:42;25.80;98.00
36800;DHT22;22752;51.960;5.886;2023-07-13T13:31:09;25.70;97.40
36800;DHT22;22752;51.960;5.886;2023-07-13T13:33:39;25.60;96.70
36800;DHT22;22752;51.960;5.886;2023-07-13T13:36:19;25.30;97.00
36800;DHT22;22752;51.960;5.886;2023-07-13T13:38:46;25.10;97.10
36800;DHT22;22752;51.960;5.886;2023-07-13T13:41:13;25.10;97.70
36800;DHT22;22752;51.960;5.886;2023-07-13T13:43:40;25.10;96.90
36800;DHT22;22752;51.960;5.886;2023-07-13T13:46:25;25.00;97.40
36800;DHT22;22752;51.960;5.886;2023-07-13T13:48:51;25.00;96.60
36800;DHT22;22752;51.960;5.886;2023-07-13T13:51:21;25.00;96.10
36800;DHT22;22752;51.960;5.886;2023-07-13T13:53:48;25.10;96.70
36800;DHT22;22752;51.960;5.886;2023-07-13T13:56:17;25.10;96.30
36800;DHT22;22752;51.960;5.886;2023-07-13T13:58:43;24.90;95.70
36800;DHT22;22752;51.960;5.886;2023-07-13T14:01:13;24.70;96.20
36800;DHT22;22752;51.960;5.886;2023-07-13T14:03:41;24.80;96.70
36800;DHT22;22752;51.960;5.886;2023-07-13T14:06:12;24.90;96.90
36800;DHT22;22752;51.960;5.886;2023-07-13T14:08:38;25.00;96.40
36800;DHT22;22752;51.960;5.886;2023-07-13T14:11:04;25.10;96.50
36800;DHT22;22752;51.960;5.886;2023-07-13T14:13:35;25.20;97.00
36800;DHT22;22752;51.960;5.886;2023-07-13T14:16:02;25.20;96.20
36800;DHT22;22752;51.960;5.886;2023-07-13T14:18:28;25.10;96.20
36800;DHT22;22752;51.960;5.886;2023-07-13T14:20:54;25.10;96.20
36800;DHT22;22752;51.960;5.886;2023-07-13T14:23:19;25.10;96.20
36800;DHT22;22752;51.960;5.886;2023-07-13T14:25:48;25.10;95.70
36800;DHT22;22752;51.960;5.886;2023-07-13T14:30:46;25.00;96.20
36800;DHT22;22752;51.960;5.886;2023-07-13T14:33:12;25.00;95.90
36800;DHT22;22752;51.960;5.886;2023-07-13T14:35:38;24.90;95.40
36800;DHT22;22752;51.960;5.886;2023-07-13T14:38:04;24.90;95.30
36800;DHT22;22752;51.960;5.886;2023-07-13T14:40:31;24.90;95.30
36800;DHT22;22752;51.960;5.886;2023-07-13T14:42:58;24.80;95.80
36800;DHT22;22752;51.960;5.886;2023-07-13T14:45:24;24.90;96.20
36800;DHT22;22752;51.960;5.886;2023-07-13T14:47:50;24.90;95.50
36800;DHT22;22752;51.960;5.886;2023-07-13T14:50:18;24.90;95.10
36800;DHT22;22752;51.960;5.886;2023-07-13T14:52:46;24.90;94.60
36800;DHT22;22752;51.960;5.886;2023-07-13T14:55:14;24.80;94.90
36800;DHT22;22752;51.960;5.886;2023-07-13T14:57:40;24.70;95.00
36800;DHT22;22752;51.960;5.886;2023-07-13T15:00:16;24.70;95.40
36800;DHT22;22752;51.960;5.886;2023-07-13T15:02:50;24.70;95.20
36800;DHT22;22752;51.960;5.886;2023-07-13T15:05:19;24.50;95.60
36800;DHT22;22752;51.960;5.886;2023-07-13T15:07:46;24.50;96.20
36800;DHT22;22752;51.960;5.886;2023-07-13T15:10:23;24.50;96.30
36800;DHT22;22752;51.960;5.886;2023-07-13T15:12:51;24.60;96.30
36800;DHT22;22752;51.960;5.886;2023-07-13T15:15:17;24.50;95.90
36800;DHT22;22752;51.960;5.886;2023-07-13T15:17:45;24.50;95.80
36800;DHT22;22752;51.960;5.886;2023-07-13T15:20:19;24.50;95.70
36800;DHT22;22752;51.960;5.886;2023-07-13T15:22:46;24.50;95.70
36800;DHT22;22752;51.960;5.886;2023-07-13T15:25:19;24.40;95.40
36800;DHT22;22752;51.960;5.886;2023-07-13T15:27:45;24.30;95.40
36800;DHT22;22752;51.960;5.886;2023-07-13T15:30:12;24.20;95.40
36800;DHT22;22752;51.960;5.886;2023-07-13T15:32:38;24.10;95.50
36800;DHT22;22752;51.960;5.886;2023-07-13T15:35:08;24.00;95.50
36800;DHT22;22752;51.960;5.886;2023-07-13T15:37:38;23.80;95.50
36800;DHT22;22752;51.960;5.886;2023-07-13T15:40:04;23.60;95.50
36800;DHT22;22752;51.960;5.886;2023-07-13T15:42:30;23.60;95.80
36800;DHT22;22752;51.960;5.886;2023-07-13T15:44:56;23.50;96.20
36800;DHT22;22752;51.960;5.886;2023-07-13T15:47:21;23.60;96.30
36800;DHT22;22752;51.960;5.886;2023-07-13T15:49:47;23.60;96.30
36800;DHT22;22752;51.960;5.886;2023-07-13T15:52:23;23.60;96.50
36800;DHT22;22752;51.960;5.886;2023-07-13T15:54:49;23.60;96.40
36800;DHT22;22752;51.960;5.886;2023-07-13T15:57:16;23.60;96.70
36800;DHT22;22752;51.960;5.886;2023-07-13T15:59:42;23.50;96.70
36800;DHT22;22752;51.960;5.886;2023-07-13T16:02:26;23.50;97.10
36800;DHT22;22752;51.960;5.886;2023-07-13T16:04:52;23.60;97.10
36800;DHT22;22752;51.960;5.886;2023-07-13T16:07:18;23.60;97.00
36800;DHT22;22752;51.960;5.886;2023-07-13T16:09:45;23.70;97.10
36800;DHT22;22752;51.960;5.886;2023-07-13T16:12:13;23.80;96.50
36800;DHT22;22752;51.960;5.886;2023-07-13T16:14:40;23.70;96.20
36800;DHT22;22752;51.960;5.886;2023-07-13T16:17:10;23.60;95.70
36800;DHT22;22752;51.960;5.886;2023-07-13T16:19:36;23.50;95.90